sensor_id;sensor_type;location;lat;lon;timestamp;temperature;humidity
46898;DHT22;32646;50.958;6.258;2023-04-03T00:01:35;0.60;99.90
46898;DHT22;32646;50.958;6.258;2023-04-03T00:04:01;0.50;99.90
46898;DHT22;32646;50.958;6.258;2023-04-03T00:06:28;0.50;99.90
46898;DHT22;32646;50.958;6.258;2023-04-03T00:08:55;0.50;99.90
46898;DHT22;32646;50.958;6.258;2023-04-03T00:11:21;0.50;99.90
46898;DHT22;32646;50.958;6.258;2023-04-03T00:13:48;0.50;99.90
46898;DHT22;32646;50.958;6.258;2023-04-03T00:16:14;0.40;99.90
46898;DHT22;32646;50.958;6.258;2023-04-03T00:18:41;0.40;99.90
46898;DHT22;32646;50.958;6.258;2023-04-03T00:21:10;0.50;99.90
46898;DHT22;32646;50.958;6.258;2023-04-03T00:23:38;0.50;99.90
46898;DHT22;32646;50.958;6.258;2023-04-03T00:26:04;0.60;99.90
46898;DHT22;32646;50.958;6.258;2023-04-03T00:28:31;0.50;99.90
46898;DHT22;32646;50.958;6.258;2023-04-03T00:30:57;0.50;99.90
46898;DHT22;32646;50.958;6.258;2023-04-03T00:33:24;0.40;99.90
46898;DHT22;32646;50.958;6.258;2023-04-03T00:35:51;0.60;99.90
46898;DHT22;32646;50.958;6.258;2023-04-03T00:38:18;0.80;99.90
46898;DHT22;32646;50.958;6.258;2023-04-03T00:40:47;0.70;99.90
46898;DHT22;32646;50.958;6.258;2023-04-03T00:43:21;0.50;99.90
46898;DHT22;32646;50.958;6.258;2023-04-03T00:45:50;0.30;99.90
46898;DHT22;32646;50.958;6.258;2023-04-03T00:48:21;0.20;99.90
46898;DHT22;32646;50.958;6.258;2023-04-03T00:50:48;0.10;99.90
46898;DHT22;32646;50.958;6.258;2023-04-03T00:53:23;0.10;99.90
46898;DHT22;32646;50.958;6.258;2023-04-03T00:55:51;0.00;99.90
46898;DHT22;32646;50.958;6.258;2023-04-03T00:58:20;-0.10;99.90
46898;DHT22;32646;50.958;6.258;2023-04-03T01:00:51;-0.20;99.90
46898;DHT22;32646;50.958;6.258;2023-04-03T01:03:19;-0.20;99.90
46898;DHT22;32646;50.958;6.258;2023-04-03T01:05:45;-0.20;99.90
46898;DHT22;32646;50.958;6.258;2023-04-03T01:08:12;-0.20;99.90
46898;DHT22;32646;50.958;6.258;2023-04-03T01:10:38;-0.20;99.90
46898;DHT22;32646;50.958;6.258;2023-04-03T01:13:19;-0.20;99.90
46898;DHT22;32646;50.958;6.258;2023-04-03T01:15:46;-0.30;99.90
46898;DHT22;32646;50.958;6.258;2023-04-03T01:18:12;-0.20;99.90
46898;DHT22;32646;50.958;6.258;2023-04-03T01:21:10;-0.30;99.90
46898;DHT22;32646;50.958;6.258;2023-04-03T01:24:22;-0.20;99.90
46898;DHT22;32646;50.958;6.258;2023-04-03T01:26:51;-0.20;99.90
46898;DHT22;32646;50.958;6.258;2023-04-03T01:29:18;-0.20;99.90
46898;DHT22;32646;50.958;6.258;2023-04-03T01:31:50;-0.10;99.90
46898;DHT22;32646;50.958;6.258;2023-04-03T01:34:18;0.00;99.90
46898;DHT22;32646;50.958;6.258;2023-04-03T01:36:44;-0.10;99.90
46898;DHT22;32646;50.958;6.258;2023-04-03T01:39:11;0.00;99.90
46898;DHT22;32646;50.958;6.258;2023-04-03T01:41:38;-0.10;99.90
46898;DHT22;32646;50.958;6.258;2023-04-03T01:44:05;-0.30;99.90
46898;DHT22;32646;50.958;6.258;2023-04-03T01:46:31;-0.40;99.90
46898;DHT22;32646;50.958;6.258;2023-04-03T01:48:58;-0.50;99.90
46898;DHT22;32646;50.958;6.258;2023-04-03T01:51:25;-0.60;99.90
46898;DHT22;32646;50.958;6.258;2023-04-03T01:53:51;-0.60;99.90
46898;DHT22;32646;50.958;6.258;2023-04-03T01:56:18;-0.60;99.90
46898;DHT22;32646;50.958;6.258;2023-04-03T01:58:44;-0.50;99.90
46898;DHT22;32646;50.958;6.258;2023-04-03T02:01:11;-0.50;99.90
46898;DHT22;32646;50.958;6.258;2023-04-03T02:03:38;-0.30;99.90
46898;DHT22;32646;50.958;6.258;2023-04-03T02:06:04;-0.20;99.90
46898;DHT22;32646;50.958;6.258;2023-04-03T02:08:31;0.10;99.90
46898;DHT22;32646;50.958;6.258;2023-04-03T02:10:57;0.20;99.90
46898;DHT22;32646;50.958;6.258;2023-04-03T02:13:24;0.30;99.90
46898;DHT22;32646;50.958;6.258;2023-04-03T02:15:51;0.50;99.90
46898;DHT22;32646;50.958;6.258;2023-04-03T02:18:17;0.60;99.90
46898;DHT22;32646;50.958;6.258;2023-04-03T02:20:45;0.60;99.90
46898;DHT22;32646;50.958;6.258;2023-04-03T02:23:12;0.60;99.90
46898;DHT22;32646;50.958;6.258;2023-04-03T02:25:39;0.60;99.90
46898;DHT22;32646;50.958;6.258;2023-04-03T02:28:05;0.50;99.90
46898;DHT22;32646;50.958;6.258;2023-04-03T02:30:32;0.50;99.90
46898;DHT22;32646;50.958;6.258;2023-04-03T02:32:59;0.40;99.90
46898;DHT22;32646;50.958;6.258;2023-04-03T02:35:25;0.40;99.90
46898;DHT22;32646;50.958;6.258;2023-04-03T02:37:52;0.20;99.90
46898;DHT22;32646;50.958;6.258;2023-04-03T02:40:19;0.10;99.90
46898;DHT22;32646;50.958;6.258;2023-04-03T02:42:45;0.00;99.90
46898;DHT22;32646;50.958;6.258;2023-04-03T02:45:12;0.00;99.90
46898;DHT22;32646;50.958;6.258;2023-04-03T02:47:38;-0.10;99.90
46898;DHT22;32646;50.958;6.258;2023-04-03T02:50:05;-0.10;99.90
46898;DHT22;32646;50.958;6.258;2023-04-03T02:52:31;-0.20;99.90
46898;DHT22;32646;50.958;6.258;2023-04-03T02:54:58;-0.30;99.90
46898;DHT22;32646;50.958;6.258;2023-04-03T02:57:25;-0.20;99.90
46898;DHT22;32646;50.958;6.258;2023-04-03T02:59:51;-0.30;99.90
46898;DHT22;32646;50.958;6.258;2023-04-03T03:02:18;-0.30;99.90
46898;DHT22;32646;50.958;6.258;2023-04-03T03:04:44;-0.40;99.90
46898;DHT22;32646;50.958;6.258;2023-04-03T03:07:11;-0.50;99.90
46898;DHT22;32646;50.958;6.258;2023-04-03T03:09:37;-0.60;99.90
46898;DHT22;32646;50.958;6.258;2023-04-03T03:12:04;-0.60;99.90
46898;DHT22;32646;50.958;6.258;2023-04-03T03:14:31;-0.60;99.90
46898;DHT22;32646;50.958;6.258;2023-04-03T03:16:57;-0.60;99.90
46898;DHT22;32646;50.958;6.258;2023-04-03T03:19:24;-0.60;99.90
46898;DHT22;32646;50.958;6.258;2023-04-03T03:21:50;-0.50;99.90
46898;DHT22;32646;50.958;6.258;2023-04-03T03:24:17;-0.40;99.90
46898;DHT22;32646;50.958;6.258;2023-04-03T03:26:43;-0.30;99.90
46898;DHT22;32646;50.958;6.258;2023-04-03T03:29:10;-0.20;99.90
46898;DHT22;32646;50.958;6.258;2023-04-03T03:31:36;-0.20;99.90
46898;DHT22;32646;50.958;6.258;2023-04-03T03:34:03;-0.20;99.90
46898;DHT22;32646;50.958;6.258;2023-04-03T03:36:30;-0.10;99.90
46898;DHT22;32646;50.958;6.258;2023-04-03T03:38:56;0.00;99.90
46898;DHT22;32646;50.958;6.258;2023-04-03T03:41:23;0.00;99.90
46898;DHT22;32646;50.958;6.258;2023-04-03T03:43:49;0.00;99.90
46898;DHT22;32646;50.958;6.258;2023-04-03T03:46:16;0.10;99.90
46898;DHT22;32646;50.958;6.258;2023-04-03T03:48:42;0.10;99.90
46898;DHT22;32646;50.958;6.258;2023-04-03T03:51:09;0.10;99.90
46898;DHT22;32646;50.958;6.258;2023-04-03T03:53:35;0.10;99.90
46898;DHT22;32646;50.958;6.258;2023-04-03T03:56:02;0.00;99.90
46898;DHT22;32646;50.958;6.258;2023-04-03T03:58:28;0.10;99.90
46898;DHT22;32646;50.958;6.258;2023-04-03T04:00:55;0.10;99.90
46898;DHT22;32646;50.958;6.258;2023-04-03T04:03:21;0.20;99.90
46898;DHT22;32646;50.958;6.258;2023-04-03T04:05:48;0.10;99.90
46898;DHT22;32646;50.958;6.258;2023-04-03T04:08:15;0.00;99.90
46898;DHT22;32646;50.958;6.258;2023-04-03T04:10:41;0.10;99.90
46898;DHT22;32646;50.958;6.258;2023-04-03T04:13:08;0.20;99.90
46898;DHT22;32646;50.958;6.258;2023-04-03T04:15:34;0.20;99.90
46898;DHT22;32646;50.958;6.258;2023-04-03T04:18:02;0.30;99.90
46898;DHT22;32646;50.958;6.258;2023-04-03T04:20:28;0.30;99.90
46898;DHT22;32646;50.958;6.258;2023-04-03T04:22:55;0.20;99.90
46898;DHT22;32646;50.958;6.258;2023-04-03T04:25:21;0.20;99.90
46898;DHT22;32646;50.958;6.258;2023-04-03T04:27:48;0.20;99.90
46898;DHT22;32646;50.958;6.258;2023-04-03T04:30:15;0.20;99.90
46898;DHT22;32646;50.958;6.258;2023-04-03T04:32:41;0.20;99.90
46898;DHT22;32646;50.958;6.258;2023-04-03T04:35:08;0.20;99.90
46898;DHT22;32646;50.958;6.258;2023-04-03T04:37:35;0.20;99.90
46898;DHT22;32646;50.958;6.258;2023-04-03T04:40:01;0.10;99.90
46898;DHT22;32646;50.958;6.258;2023-04-03T04:42:28;0.20;99.90
46898;DHT22;32646;50.958;6.258;2023-04-03T04:44:55;0.20;99.90
46898;DHT22;32646;50.958;6.258;2023-04-03T04:47:21;0.30;99.90
46898;DHT22;32646;50.958;6.258;2023-04-03T04:49:48;0.40;99.90
46898;DHT22;32646;50.958;6.258;2023-04-03T04:52:14;0.30;99.90
46898;DHT22;32646;50.958;6.258;2023-04-03T04:54:41;0.20;99.90
46898;DHT22;32646;50.958;6.258;2023-04-03T04:57:07;0.20;99.90
46898;DHT22;32646;50.958;6.258;2023-04-03T04:59:34;0.30;99.90
46898;DHT22;32646;50.958;6.258;2023-04-03T05:02:01;0.20;99.90
46898;DHT22;32646;50.958;6.258;2023-04-03T05:04:27;0.20;99.90
46898;DHT22;32646;50.958;6.258;2023-04-03T05:06:54;0.30;99.90
46898;DHT22;32646;50.958;6.258;2023-04-03T05:09:21;0.40;99.90
46898;DHT22;32646;50.958;6.258;2023-04-03T05:11:47;0.30;99.90
46898;DHT22;32646;50.958;6.258;2023-04-03T05:14:14;0.30;99.90
46898;DHT22;32646;50.958;6.258;2023-04-03T05:16:40;0.50;99.90
46898;DHT22;32646;50.958;6.258;2023-04-03T05:19:07;0.40;99.90
46898;DHT22;32646;50.958;6.258;2023-04-03T05:21:34;0.40;99.90
46898;DHT22;32646;50.958;6.258;2023-04-03T05:24:01;0.60;99.90
46898;DHT22;32646;50.958;6.258;2023-04-03T05:26:28;0.70;99.90
46898;DHT22;32646;50.958;6.258;2023-04-03T05:28:54;0.60;99.90
46898;DHT22;32646;50.958;6.258;2023-04-03T05:31:21;0.70;99.90
46898;DHT22;32646;50.958;6.258;2023-04-03T05:33:49;0.60;99.90
46898;DHT22;32646;50.958;6.258;2023-04-03T05:36:15;0.60;99.90
46898;DHT22;32646;50.958;6.258;2023-04-03T05:38:42;0.60;99.90
46898;DHT22;32646;50.958;6.258;2023-04-03T05:41:09;0.60;99.90
46898;DHT22;32646;50.958;6.258;2023-04-03T05:43:36;0.60;99.90
46898;DHT22;32646;50.958;6.258;2023-04-03T05:46:02;0.60;99.90
46898;DHT22;32646;50.958;6.258;2023-04-03T05:48:29;0.60;99.90
46898;DHT22;32646;50.958;6.258;2023-04-03T05:50:55;0.60;99.90
46898;DHT22;32646;50.958;6.258;2023-04-03T05:53:29;0.60;99.90
46898;DHT22;32646;50.958;6.258;2023-04-03T05:55:57;0.70;99.90
46898;DHT22;32646;50.958;6.258;2023-04-03T05:58:24;0.80;99.90
46898;DHT22;32646;50.958;6.258;2023-04-03T06:00:50;0.80;99.90
46898;DHT22;32646;50.958;6.258;2023-04-03T06:03:17;0.80;99.90
46898;DHT22;32646;50.958;6.258;2023-04-03T06:05:44;0.80;99.90
46898;DHT22;32646;50.958;6.258;2023-04-03T06:08:10;0.90;99.90
46898;DHT22;32646;50.958;6.258;2023-04-03T06:10:37;0.90;99.90
46898;DHT22;32646;50.958;6.258;2023-04-03T06:13:04;0.90;99.90
46898;DHT22;32646;50.958;6.258;2023-04-03T06:15:30;1.00;99.90
46898;DHT22;32646;50.958;6.258;2023-04-03T06:17:57;1.00;99.90
46898;DHT22;32646;50.958;6.258;2023-04-03T06:20:23;1.10;99.90
46898;DHT22;32646;50.958;6.258;2023-04-03T06:22:50;1.10;99.90
46898;DHT22;32646;50.958;6.258;2023-04-03T06:25:17;1.10;99.90
46898;DHT22;32646;50.958;6.258;2023-04-03T06:27:43;1.20;99.90
46898;DHT22;32646;50.958;6.258;2023-04-03T06:30:10;1.20;99.90
46898;DHT22;32646;50.958;6.258;2023-04-03T06:32:37;1.30;99.90
46898;DHT22;32646;50.958;6.258;2023-04-03T06:35:05;1.30;99.90
46898;DHT22;32646;50.958;6.258;2023-04-03T06:37:31;1.30;99.90
46898;DHT22;32646;50.958;6.258;2023-04-03T06:39:58;1.40;99.90
46898;DHT22;32646;50.958;6.258;2023-04-03T06:42:24;1.50;99.90
46898;DHT22;32646;50.958;6.258;2023-04-03T06:44:51;1.60;99.90
46898;DHT22;32646;50.958;6.258;2023-04-03T06:47:18;1.70;99.90
46898;DHT22;32646;50.958;6.258;2023-04-03T06:49:45;1.80;99.90
46898;DHT22;32646;50.958;6.258;2023-04-03T06:52:11;1.90;99.90
46898;DHT22;32646;50.958;6.258;2023-04-03T06:54:39;2.00;99.90
46898;DHT22;32646;50.958;6.258;2023-04-03T06:57:05;2.00;99.90
46898;DHT22;32646;50.958;6.258;2023-04-03T06:59:32;2.10;99.90
46898;DHT22;32646;50.958;6.258;2023-04-03T07:01:59;2.30;99.90
46898;DHT22;32646;50.958;6.258;2023-04-03T07:04:25;2.30;99.90
46898;DHT22;32646;50.958;6.258;2023-04-03T07:06:52;2.50;99.90
46898;DHT22;32646;50.958;6.258;2023-04-03T07:09:19;2.50;99.90
46898;DHT22;32646;50.958;6.258;2023-04-03T07:11:46;2.60;99.90
46898;DHT22;32646;50.958;6.258;2023-04-03T07:14:12;2.70;99.90
46898;DHT22;32646;50.958;6.258;2023-04-03T07:16:39;2.70;99.90
46898;DHT22;32646;50.958;6.258;2023-04-03T07:19:08;2.90;99.90
46898;DHT22;32646;50.958;6.258;2023-04-03T07:21:34;3.00;99.90
46898;DHT22;32646;50.958;6.258;2023-04-03T07:24:01;3.10;99.90
46898;DHT22;32646;50.958;6.258;2023-04-03T07:26:27;3.20;99.90
46898;DHT22;32646;50.958;6.258;2023-04-03T07:28:54;3.40;99.90
46898;DHT22;32646;50.958;6.258;2023-04-03T07:31:20;3.40;99.90
46898;DHT22;32646;50.958;6.258;2023-04-03T07:33:47;3.50;99.90
46898;DHT22;32646;50.958;6.258;2023-04-03T07:36:20;3.60;99.90
46898;DHT22;32646;50.958;6.258;2023-04-03T07:38:47;3.70;99.90
46898;DHT22;32646;50.958;6.258;2023-04-03T07:41:17;3.80;99.90
46898;DHT22;32646;50.958;6.258;2023-04-03T07:43:44;4.00;99.90
46898;DHT22;32646;50.958;6.258;2023-04-03T07:46:11;4.10;99.90
46898;DHT22;32646;50.958;6.258;2023-04-03T07:48:38;4.20;99.90
46898;DHT22;32646;50.958;6.258;2023-04-03T07:51:05;4.40;99.90
46898;DHT22;32646;50.958;6.258;2023-04-03T07:53:32;4.50;99.90
46898;DHT22;32646;50.958;6.258;2023-04-03T07:55:59;4.80;99.90
46898;DHT22;32646;50.958;6.258;2023-04-03T07:58:26;5.20;99.90
46898;DHT22;32646;50.958;6.258;2023-04-03T08:00:53;5.60;99.90
46898;DHT22;32646;50.958;6.258;2023-04-03T08:03:19;5.90;99.90
46898;DHT22;32646;50.958;6.258;2023-04-03T08:05:48;6.10;99.90
46898;DHT22;32646;50.958;6.258;2023-04-03T08:08:17;6.60;99.90
46898;DHT22;32646;50.958;6.258;2023-04-03T08:10:51;7.00;99.90
46898;DHT22;32646;50.958;6.258;2023-04-03T08:13:19;7.20;99.90
46898;DHT22;32646;50.958;6.258;2023-04-03T08:15:46;7.70;99.90
46898;DHT22;32646;50.958;6.258;2023-04-03T08:18:14;8.50;95.50
46898;DHT22;32646;50.958;6.258;2023-04-03T08:20:41;8.60;93.80
46898;DHT22;32646;50.958;6.258;2023-04-03T08:23:08;8.40;93.80
46898;DHT22;32646;50.958;6.258;2023-04-03T08:25:39;8.40;92.40
46898;DHT22;32646;50.958;6.258;2023-04-03T08:28:07;8.70;90.90
46898;DHT22;32646;50.958;6.258;2023-04-03T08:30:34;8.70;88.60
46898;DHT22;32646;50.958;6.258;2023-04-03T08:33:01;8.60;91.70
46898;DHT22;32646;50.958;6.258;2023-04-03T08:35:28;8.40;91.90
46898;DHT22;32646;50.958;6.258;2023-04-03T08:37:55;8.70;89.60
46898;DHT22;32646;50.958;6.258;2023-04-03T08:40:22;9.00;87.40
46898;DHT22;32646;50.958;6.258;2023-04-03T08:48:08;8.50;87.80
46898;DHT22;32646;50.958;6.258;2023-04-03T08:50:40;8.60;86.40
46898;DHT22;32646;50.958;6.258;2023-04-03T08:53:20;9.20;86.20
46898;DHT22;32646;50.958;6.258;2023-04-03T08:55:49;8.60;84.00
46898;DHT22;32646;50.958;6.258;2023-04-03T08:58:20;9.10;88.30
46898;DHT22;32646;50.958;6.258;2023-04-03T09:01:05;9.10;84.10
46898;DHT22;32646;50.958;6.258;2023-04-03T09:03:39;9.20;86.40
46898;DHT22;32646;50.958;6.258;2023-04-03T09:06:23;9.30;84.40
46898;DHT22;32646;50.958;6.258;2023-04-03T09:21:57;10.00;81.20
46898;DHT22;32646;50.958;6.258;2023-04-03T09:24:24;10.40;73.90
46898;DHT22;32646;50.958;6.258;2023-04-03T09:26:56;10.80;75.50
46898;DHT22;32646;50.958;6.258;2023-04-03T09:29:25;10.50;75.50
46898;DHT22;32646;50.958;6.258;2023-04-03T09:32:02;9.90;75.40
46898;DHT22;32646;50.958;6.258;2023-04-03T09:34:36;10.00;75.10
46898;DHT22;32646;50.958;6.258;2023-04-03T09:37:04;9.50;76.60
46898;DHT22;32646;50.958;6.258;2023-04-03T09:39:32;9.40;75.30
46898;DHT22;32646;50.958;6.258;2023-04-03T09:42:24;9.50;75.00
46898;DHT22;32646;50.958;6.258;2023-04-03T09:44:59;10.10;71.70
46898;DHT22;32646;50.958;6.258;2023-04-03T09:47:34;10.30;70.70
46898;DHT22;32646;50.958;6.258;2023-04-03T09:52:48;9.90;63.80
46898;DHT22;32646;50.958;6.258;2023-04-03T09:55:18;9.90;65.90
46898;DHT22;32646;50.958;6.258;2023-04-03T09:57:45;9.80;66.40
46898;DHT22;32646;50.958;6.258;2023-04-03T10:00:25;10.60;68.10
46898;DHT22;32646;50.958;6.258;2023-04-03T10:02:57;10.40;63.70
46898;DHT22;32646;50.958;6.258;2023-04-03T10:10:41;9.70;66.30
46898;DHT22;32646;50.958;6.258;2023-04-03T10:13:19;9.70;66.90
46898;DHT22;32646;50.958;6.258;2023-04-03T10:15:56;10.00;69.50
46898;DHT22;32646;50.958;6.258;2023-04-03T10:20:51;10.20;66.70
46898;DHT22;32646;50.958;6.258;2023-04-03T10:26:34;10.90;65.00
46898;DHT22;32646;50.958;6.258;2023-04-03T10:29:25;10.70;65.40
46898;DHT22;32646;50.958;6.258;2023-04-03T10:31:59;10.30;64.40
46898;DHT22;32646;50.958;6.258;2023-04-03T10:34:40;10.20;66.90
46898;DHT22;32646;50.958;6.258;2023-04-03T10:40:02;10.80;63.40
46898;DHT22;32646;50.958;6.258;2023-04-03T10:42:46;10.20;61.80
46898;DHT22;32646;50.958;6.258;2023-04-03T10:45:33;10.40;65.60
46898;DHT22;32646;50.958;6.258;2023-04-03T10:48:11;10.90;65.00
46898;DHT22;32646;50.958;6.258;2023-04-03T10:51:10;11.10;66.80
46898;DHT22;32646;50.958;6.258;2023-04-03T10:56:31;11.50;64.00
46898;DHT22;32646;50.958;6.258;2023-04-03T11:01:49;12.00;63.10
46898;DHT22;32646;50.958;6.258;2023-04-03T11:04:19;12.40;61.10
46898;DHT22;32646;50.958;6.258;2023-04-03T11:07:02;12.40;64.10
46898;DHT22;32646;50.958;6.258;2023-04-03T11:09:34;12.00;63.50
46898;DHT22;32646;50.958;6.258;2023-04-03T11:12:05;11.50;59.70
46898;DHT22;32646;50.958;6.258;2023-04-03T11:14:34;10.70;67.00
46898;DHT22;32646;50.958;6.258;2023-04-03T11:19:57;11.30;62.30
46898;DHT22;32646;50.958;6.258;2023-04-03T11:25:03;12.20;64.90
46898;DHT22;32646;50.958;6.258;2023-04-03T11:27:51;12.40;59.70
46898;DHT22;32646;50.958;6.258;2023-04-03T11:33:30;12.10;64.90
46898;DHT22;32646;50.958;6.258;2023-04-03T11:36:27;12.20;59.80
46898;DHT22;32646;50.958;6.258;2023-04-03T11:39:16;12.30;62.20
46898;DHT22;32646;50.958;6.258;2023-04-03T11:41:45;12.00;63.80
46898;DHT22;32646;50.958;6.258;2023-04-03T11:44:37;11.10;60.20
46898;DHT22;32646;50.958;6.258;2023-04-03T11:47:08;11.10;61.50
46898;DHT22;32646;50.958;6.258;2023-04-03T12:00:55;12.10;63.20
46898;DHT22;32646;50.958;6.258;2023-04-03T12:14:03;11.80;59.90
46898;DHT22;32646;50.958;6.258;2023-04-03T12:16:44;12.40;59.60
46898;DHT22;32646;50.958;6.258;2023-04-03T12:27:03;12.10;61.00
46898;DHT22;32646;50.958;6.258;2023-04-03T12:35:14;12.10;60.60
46898;DHT22;32646;50.958;6.258;2023-04-03T12:40:53;12.60;60.40
46898;DHT22;32646;50.958;6.258;2023-04-03T12:43:48;12.40;59.90
46898;DHT22;32646;50.958;6.258;2023-04-03T12:46:23;12.30;59.10
46898;DHT22;32646;50.958;6.258;2023-04-03T12:48:59;11.60;56.60
46898;DHT22;32646;50.958;6.258;2023-04-03T12:51:40;11.90;56.80
46898;DHT22;32646;50.958;6.258;2023-04-03T12:54:34;12.70;59.40
46898;DHT22;32646;50.958;6.258;2023-04-03T12:57:21;12.80;56.80
46898;DHT22;32646;50.958;6.258;2023-04-03T12:59:50;13.10;53.40
46898;DHT22;32646;50.958;6.258;2023-04-03T13:04:46;12.40;51.70
46898;DHT22;32646;50.958;6.258;2023-04-03T13:07:27;12.00;55.10
46898;DHT22;32646;50.958;6.258;2023-04-03T13:09:57;12.30;58.60
46898;DHT22;32646;50.958;6.258;2023-04-03T13:12:23;13.20;55.10
46898;DHT22;32646;50.958;6.258;2023-04-03T13:14:56;13.10;51.30
46898;DHT22;32646;50.958;6.258;2023-04-03T13:17:23;13.00;52.50
46898;DHT22;32646;50.958;6.258;2023-04-03T13:19:50;13.10;53.20
46898;DHT22;32646;50.958;6.258;2023-04-03T13:22:40;13.10;55.70
46898;DHT22;32646;50.958;6.258;2023-04-03T13:25:11;12.70;48.50
46898;DHT22;32646;50.958;6.258;2023-04-03T13:27:39;12.60;50.30
46898;DHT22;32646;50.958;6.258;2023-04-03T13:30:17;12.10;50.90
46898;DHT22;32646;50.958;6.258;2023-04-03T13:32:45;12.80;50.10
46898;DHT22;32646;50.958;6.258;2023-04-03T13:35:45;13.00;50.70
46898;DHT22;32646;50.958;6.258;2023-04-03T13:40:55;12.50;49.80
46898;DHT22;32646;50.958;6.258;2023-04-03T13:43:28;12.60;48.60
46898;DHT22;32646;50.958;6.258;2023-04-03T13:48:35;13.90;50.30
46898;DHT22;32646;50.958;6.258;2023-04-03T13:56:33;13.00;50.10
46898;DHT22;32646;50.958;6.258;2023-04-03T13:59:20;12.90;49.90
46898;DHT22;32646;50.958;6.258;2023-04-03T14:04:45;13.70;50.70
46898;DHT22;32646;50.958;6.258;2023-04-03T14:07:14;13.20;50.70
46898;DHT22;32646;50.958;6.258;2023-04-03T14:09:42;13.30;51.50
46898;DHT22;32646;50.958;6.258;2023-04-03T14:12:15;13.10;50.70
46898;DHT22;32646;50.958;6.258;2023-04-03T14:14:56;13.60;48.80
46898;DHT22;32646;50.958;6.258;2023-04-03T14:17:25;13.60;48.80
46898;DHT22;32646;50.958;6.258;2023-04-03T14:19:53;13.60;49.00
46898;DHT22;32646;50.958;6.258;2023-04-03T14:22:26;14.00;50.70
46898;DHT22;32646;50.958;6.258;2023-04-03T14:24:53;13.70;46.00
46898;DHT22;32646;50.958;6.258;2023-04-03T14:27:27;13.60;49.50
46898;DHT22;32646;50.958;6.258;2023-04-03T14:29:56;13.50;47.80
46898;DHT22;32646;50.958;6.258;2023-04-03T14:32:24;13.30;50.10
46898;DHT22;32646;50.958;6.258;2023-04-03T14:34:51;13.80;48.10
46898;DHT22;32646;50.958;6.258;2023-04-03T14:37:23;14.50;48.50
46898;DHT22;32646;50.958;6.258;2023-04-03T14:39:52;14.50;47.90
46898;DHT22;32646;50.958;6.258;2023-04-03T14:42:24;13.30;46.50
46898;DHT22;32646;50.958;6.258;2023-04-03T14:44:51;13.00;49.10
46898;DHT22;32646;50.958;6.258;2023-04-03T14:47:24;13.30;47.30
46898;DHT22;32646;50.958;6.258;2023-04-03T14:50:02;13.60;47.70
46898;DHT22;32646;50.958;6.258;2023-04-03T14:52:35;13.20;45.10
46898;DHT22;32646;50.958;6.258;2023-04-03T14:55:04;12.70;45.00
46898;DHT22;32646;50.958;6.258;2023-04-03T14:57:32;12.50;47.60
46898;DHT22;32646;50.958;6.258;2023-04-03T14:59:59;12.60;49.10
46898;DHT22;32646;50.958;6.258;2023-04-03T15:02:36;12.30;46.70
46898;DHT22;32646;50.958;6.258;2023-04-03T15:05:06;12.90;46.90
46898;DHT22;32646;50.958;6.258;2023-04-03T15:07:39;12.50;50.20
46898;DHT22;32646;50.958;6.258;2023-04-03T15:12:42;12.60;48.10
46898;DHT22;32646;50.958;6.258;2023-04-03T15:15:09;12.60;49.40
46898;DHT22;32646;50.958;6.258;2023-04-03T15:17:36;12.40;50.00
46898;DHT22;32646;50.958;6.258;2023-04-03T15:20:05;12.80;49.90
46898;DHT22;32646;50.958;6.258;2023-04-03T15:22:37;12.30;50.70
46898;DHT22;32646;50.958;6.258;2023-04-03T15:25:04;12.20;49.90
46898;DHT22;32646;50.958;6.258;2023-04-03T15:27:31;12.00;48.70
46898;DHT22;32646;50.958;6.258;2023-04-03T15:29:58;12.00;48.60
46898;DHT22;32646;50.958;6.258;2023-04-03T15:32:25;11.60;52.40
46898;DHT22;32646;50.958;6.258;2023-04-03T15:34:51;11.70;50.00
46898;DHT22;32646;50.958;6.258;2023-04-03T15:37:22;11.90;50.70
46898;DHT22;32646;50.958;6.258;2023-04-03T15:39:48;11.80;50.20
46898;DHT22;32646;50.958;6.258;2023-04-03T15:42:15;11.50;51.80
46898;DHT22;32646;50.958;6.258;2023-04-03T15:44:41;11.40;51.50
46898;DHT22;32646;50.958;6.258;2023-04-03T15:47:08;11.10;55.60
46898;DHT22;32646;50.958;6.258;2023-04-03T15:49:35;10.70;52.60
46898;DHT22;32646;50.958;6.258;2023-04-03T15:52:03;10.60;55.80
46898;DHT22;32646;50.958;6.258;2023-04-03T15:54:29;10.70;57.50
46898;DHT22;32646;50.958;6.258;2023-04-03T15:56:56;10.70;54.90
46898;DHT22;32646;50.958;6.258;2023-04-03T15:59:23;10.70;56.70
46898;DHT22;32646;50.958;6.258;2023-04-03T16:01:51;11.00;57.10
46898;DHT22;32646;50.958;6.258;2023-04-03T16:04:19;10.70;55.90
46898;DHT22;32646;50.958;6.258;2023-04-03T16:06:46;10.40;58.10
46898;DHT22;32646;50.958;6.258;2023-04-03T16:09:12;10.40;56.40
46898;DHT22;32646;50.958;6.258;2023-04-03T16:11:39;10.20;56.60
46898;DHT22;32646;50.958;6.258;2023-04-03T16:14:09;10.10;55.70
46898;DHT22;32646;50.958;6.258;2023-04-03T16:16:36;9.90;57.80
46898;DHT22;32646;50.958;6.258;2023-04-03T16:19:03;9.90;58.30
46898;DHT22;32646;50.958;6.258;2023-04-03T16:21:31;9.90;59.60
46898;DHT22;32646;50.958;6.258;2023-04-03T16:23:59;10.00;60.70
46898;DHT22;32646;50.958;6.258;2023-04-03T16:26:26;9.70;58.20
46898;DHT22;32646;50.958;6.258;2023-04-03T16:28:53;9.70;58.20
46898;DHT22;32646;50.958;6.258;2023-04-03T16:31:20;9.50;58.80
46898;DHT22;32646;50.958;6.258;2023-04-03T16:33:47;9.70;59.30
46898;DHT22;32646;50.958;6.258;2023-04-03T16:36:14;9.40;59.40
46898;DHT22;32646;50.958;6.258;2023-04-03T16:38:41;9.50;59.50
46898;DHT22;32646;50.958;6.258;2023-04-03T16:41:07;9.50;60.80
46898;DHT22;32646;50.958;6.258;2023-04-03T16:43:34;9.40;61.30
46898;DHT22;32646;50.958;6.258;2023-04-03T16:46:01;9.20;61.10
46898;DHT22;32646;50.958;6.258;2023-04-03T16:48:28;9.10;62.50
46898;DHT22;32646;50.958;6.258;2023-04-03T16:50:55;9.00;62.10
46898;DHT22;32646;50.958;6.258;2023-04-03T16:53:22;8.90;63.30
46898;DHT22;32646;50.958;6.258;2023-04-03T16:55:49;8.80;64.40
46898;DHT22;32646;50.958;6.258;2023-04-03T16:58:16;8.70;63.30
46898;DHT22;32646;50.958;6.258;2023-04-03T17:00:43;8.60;63.40
46898;DHT22;32646;50.958;6.258;2023-04-03T17:03:09;8.60;64.20
46898;DHT22;32646;50.958;6.258;2023-04-03T17:05:37;8.50;63.60
46898;DHT22;32646;50.958;6.258;2023-04-03T17:08:04;8.40;63.80
46898;DHT22;32646;50.958;6.258;2023-04-03T17:10:31;8.30;64.30
46898;DHT22;32646;50.958;6.258;2023-04-03T17:12:57;8.30;64.60
46898;DHT22;32646;50.958;6.258;2023-04-03T17:15:25;8.10;65.10
46898;DHT22;32646;50.958;6.258;2023-04-03T17:17:52;8.30;65.00
46898;DHT22;32646;50.958;6.258;2023-04-03T17:20:19;8.00;66.80
46898;DHT22;32646;50.958;6.258;2023-04-03T17:22:46;8.00;65.80
46898;DHT22;32646;50.958;6.258;2023-04-03T17:25:13;7.80;66.90
46898;DHT22;32646;50.958;6.258;2023-04-03T17:27:40;7.80;67.20
46898;DHT22;32646;50.958;6.258;2023-04-03T17:30:07;7.70;69.30
46898;DHT22;32646;50.958;6.258;2023-04-03T17:32:33;7.70;68.60
46898;DHT22;32646;50.958;6.258;2023-04-03T17:35:00;7.60;69.30
46898;DHT22;32646;50.958;6.258;2023-04-03T17:37:26;7.80;69.10
46898;DHT22;32646;50.958;6.258;2023-04-03T17:39:53;7.80;69.00